Time;durP1;ratioP1;P1;durP2;ratioP2;P2;SDS_P1;SDS_P2;PMS_P1;PMS_P2;Temp;Humidity;BMP_temperature;BMP_pressure;BME280_temperature;BME280_humidity;BME280_pressure;Samples;Min_cycle;Max_cycle;Signal;HPM_P1;HPM_P2
2021/04/25 07:32:39;;;;;;;18.90;10.63;;;13.60;84.50;;;;;;5040382;23;20053;-81
2021/04/25 07:35:07;;;;;;;15.35;10.18;;;13.80;84.20;;;;;;4909509;29;20087;-81
2021/04/25 07:37:34;;;;;;;16.90;10.33;;;13.90;83.70;;;;;;4911228;29;20048;-83
2021/04/25 07:40:01;;;;;;;14.98;10.70;;;14.00;83.20;;;;;;4914430;29;20049;-82
2021/04/25 07:42:28;;;;;;;16.92;10.48;;;14.20;83.00;;;;;;4909350;29;20044;-83
2021/04/25 07:44:55;;;;;;;16.58;10.57;;;14.30;82.80;;;;;;4912907;29;20522;-81
2021/04/25 07:47:21;;;;;;;15.65;10.73;;;14.50;82.80;;;;;;4911220;29;20064;-81
2021/04/25 07:49:48;;;;;;;20.27;11.07;;;14.60;82.70;;;;;;4897680;29;20049;-80
2021/04/25 07:52:14;;;;;;;15.75;10.13;;;14.80;82.30;;;;;;4911161;29;20512;-82
2021/04/25 07:54:41;;;;;;;16.35;10.32;;;14.90;81.90;;;;;;4896089;29;20049;-82
2021/04/25 07:57:07;;;;;;;15.00;10.65;;;15.10;81.60;;;;;;4897701;29;20053;-83
2021/04/25 07:59:33;;;;;;;17.13;10.75;;;15.20;80.10;;;;;;4896161;29;20044;-82
2021/04/25 08:02:00;;;;;;;14.35;9.95;;;15.30;79.80;;;;;;4913717;29;20048;-82
2021/04/25 08:04:27;;;;;;;17.25;10.43;;;15.40;79.40;;;;;;4897056;29;20051;-83
2021/04/25 08:06:54;;;;;;;15.32;10.27;;;15.50;79.40;;;;;;4897418;29;20044;-82
2021/04/25 08:09:21;;;;;;;13.02;9.35;;;15.70;79.30;;;;;;4897246;29;20049;-82
2021/04/25 08:11:47;;;;;;;15.98;10.05;;;15.80;78.60;;;;;;4897098;29;20060;-82
2021/04/25 08:14:14;;;;;;;12.25;10.32;;;15.90;78.00;;;;;;4910906;29;20055;-83
2021/04/25 08:16:40;;;;;;;17.05;10.43;;;15.90;77.40;;;;;;4896979;29;20088;-86
2021/04/25 08:19:08;;;;;;;19.40;10.73;;;15.90;76.40;;;;;;4911014;29;20059;-83
2021/04/25 08:21:34;;;;;;;15.60;11.13;;;16.00;77.20;;;;;;4911714;29;20179;-83
2021/04/25 08:24:05;;;;;;;23.10;10.85;;;16.00;76.60;;;;;;4909429;29;20514;-82
2021/04/25 08:26:31;;;;;;;21.27;11.05;;;16.10;76.70;;;;;;4920082;29;20047;-87
2021/04/25 08:28:58;;;;;;;19.20;11.10;;;16.20;76.00;;;;;;4907438;29;20052;-84
2021/04/25 08:31:25;;;;;;;16.13;11.40;;;16.30;75.80;;;;;;4911189;29;20060;-83
2021/04/25 08:33:52;;;;;;;18.73;10.48;;;16.30;74.60;;;;;;4881144;29;20052;-84
2021/04/25 08:36:18;;;;;;;15.45;10.05;;;16.40;75.00;;;;;;4904422;29;20061;-83
2021/04/25 08:38:47;;;;;;;15.18;10.65;;;16.40;74.60;;;;;;4895202;29;20576;-84
2021/04/25 08:41:16;;;;;;;19.45;10.57;;;16.50;74.10;;;;;;4896006;29;20525;-83
2021/04/25 08:43:44;;;;;;;17.17;10.75;;;16.70;74.20;;;;;;4895233;29;20079;-83
2021/04/25 08:46:13;;;;;;;21.67;10.40;;;16.80;74.00;;;;;;4896494;29;20583;-83
2021/04/25 08:48:40;;;;;;;18.83;10.27;;;16.90;74.20;;;;;;4895322;29;20045;-83
2021/04/25 08:51:10;;;;;;;23.67;11.38;;;17.00;73.30;;;;;;4895478;29;20135;-83
2021/04/25 08:53:39;;;;;;;19.58;9.68;;;17.00;72.10;;;;;;4895391;29;20059;-83
2021/04/25 08:56:06;;;;;;;23.00;10.45;;;17.00;71.10;;;;;;4910221;29;20052;-84
2021/04/25 08:58:34;;;;;;;17.67;10.43;;;17.00;71.50;;;;;;4895308;29;20131;-83
2021/04/25 09:01:01;;;;;;;15.88;10.15;;;17.00;70.90;;;;;;4895714;29;20045;-86
2021/04/25 09:03:28;;;;;;;16.45;10.75;;;17.10;71.40;;;;;;4895311;29;20460;-83
2021/04/25 09:05:58;;;;;;;23.50;10.73;;;17.20;70.90;;;;;;4895225;29;20082;-82
2021/04/25 09:08:44;;;;;;;12.65;9.70;;;17.20;69.70;;;;;;4894750;29;20092;-83
2021/04/25 09:11:28;;;;;;;15.15;9.55;;;17.30;70.30;;;;;;4893791;29;20058;-83
2021/04/25 09:14:16;;;;;;;18.65;9.05;;;17.30;69.80;;;;;;4891801;29;20084;-85
2021/04/25 09:16:57;;;;;;;16.97;9.97;;;17.30;70.60;;;;;;4900927;29;20056;-83
2021/04/25 09:19:26;;;;;;;14.70;9.48;;;17.30;70.50;;;;;;4899684;29;20063;-85
2021/04/25 09:21:58;;;;;;;23.10;10.48;;;17.30;71.00;;;;;;4893396;29;20060;-85
2021/04/25 09:24:30;;;;;;;18.13;9.65;;;17.40;69.80;;;;;;4886598;29;20105;-85
2021/04/25 09:26:57;;;;;;;14.68;8.80;;;17.50;69.70;;;;;;4905483;29;20064;-83
2021/04/25 09:29:26;;;;;;;14.98;8.60;;;17.50;69.90;;;;;;4893688;29;20107;-84
2021/04/25 09:31:54;;;;;;;13.25;9.07;;;17.50;70.30;;;;;;4907680;29;20072;-84
2021/04/25 09:34:28;;;;;;;12.88;9.07;;;17.60;70.10;;;;;;4905684;29;20076;-84
2021/04/25 09:37:12;;;;;;;23.80;10.70;;;17.70;70.00;;;;;;4904073;29;20045;-81
2021/04/25 09:39:38;;;;;;;25.98;9.70;;;17.80;69.50;;;;;;4892502;29;20503;-83
2021/04/25 09:42:07;;;;;;;17.75;9.75;;;17.90;69.40;;;;;;4891557;29;20563;-87
2021/04/25 09:44:34;;;;;;;15.35;9.73;;;18.10;69.40;;;;;;4891446;29;20147;-82
2021/04/25 09:47:04;;;;;;;13.10;9.52;;;18.10;68.60;;;;;;4891334;29;20064;-82
2021/04/25 09:49:41;;;;;;;13.48;9.18;;;18.30;68.40;;;;;;4892307;29;20049;-81
2021/04/25 09:52:10;;;;;;;13.88;9.00;;;18.40;68.60;;;;;;4892056;29;20060;-83
2021/04/25 09:54:36;;;;;;;;;;;18.50;68.40;;;;;;4893406;29;20080;-82
2021/04/25 09:57:03;;;;;;;12.85;9.10;;;18.50;68.60;;;;;;4905698;29;19957;-83
2021/04/25 09:59:30;;;;;;;15.63;10.13;;;18.60;68.50;;;;;;4902731;29;20053;-81
2021/04/25 10:02:05;;;;;;;13.27;9.23;;;18.70;68.60;;;;;;4891656;29;20556;-82
2021/04/25 10:04:37;;;;;;;14.15;9.43;;;18.90;67.00;;;;;;4890152;29;20053;-83
2021/04/25 10:07:06;;;;;;;12.20;8.00;;;18.90;67.40;;;;;;4888929;29;20059;-81
2021/04/25 10:09:33;;;;;;;14.05;9.27;;;19.00;67.30;;;;;;4891558;29;21116;-81
2021/04/25 10:12:02;;;;;;;12.50;8.13;;;19.00;67.60;;;;;;4891006;29;20056;-83
2021/04/25 10:14:30;;;;;;;14.40;8.70;;;19.10;67.80;;;;;;4890540;29;20049;-82
2021/04/25 10:16:57;;;;;;;;;;;19.10;67.20;;;;;;4903076;29;20522;-83
2021/04/25 10:19:24;;;;;;;12.73;8.82;;;19.10;66.80;;;;;;4890605;29;20584;-83
2021/04/25 10:21:52;;;;;;;14.75;9.25;;;19.00;67.10;;;;;;4889033;29;20060;-85
2021/04/25 10:24:20;;;;;;;15.70;8.27;;;19.00;67.30;;;;;;4895823;29;20053;-85
2021/04/25 10:27:10;;;;;;;16.02;9.43;;;18.90;67.50;;;;;;4895354;29;20281;-82
2021/04/25 10:29:45;;;;;;;12.50;8.82;;;18.90;66.90;;;;;;4894841;29;20100;-84
2021/04/25 10:32:12;;;;;;;13.40;8.45;;;18.90;66.50;;;;;;4910499;29;20127;-81
2021/04/25 10:34:38;;;;;;;10.25;7.97;;;18.90;66.60;;;;;;4897026;29;20055;-81
2021/04/25 10:37:09;;;;;;;17.02;8.82;;;18.90;66.40;;;;;;4895071;29;20063;-81
2021/04/25 10:39:46;;;;;;;19.95;8.73;;;18.90;66.20;;;;;;4912582;29;20056;-82
2021/04/25 10:42:23;;;;;;;13.52;8.63;;;19.00;66.60;;;;;;4896306;29;20520;-83
2021/04/25 10:45:16;;;;;;;12.73;8.68;;;19.10;65.90;;;;;;4912004;29;20084;-80
2021/04/25 10:47:44;;;;;;;13.68;8.63;;;19.20;66.10;;;;;;4895550;29;20048;-81
2021/04/25 10:50:13;;;;;;;16.08;8.20;;;19.30;66.00;;;;;;4905792;29;20509;-83
2021/04/25 10:52:41;;;;;;;14.63;8.00;;;19.40;65.70;;;;;;4890622;29;20060;-83
2021/04/25 10:55:14;;;;;;;13.50;7.97;;;19.50;66.20;;;;;;4896031;29;20045;-84
2021/04/25 10:57:52;;;;;;;13.50;7.80;;;19.60;66.70;;;;;;4896984;29;20049;-84
2021/04/25 11:00:31;;;;;;;12.50;8.40;;;19.70;66.30;;;;;;4908227;29;20064;-84
2021/04/25 11:03:02;;;;;;;;;;;19.70;66.10;;;;;;4898019;29;20124;-84
2021/04/25 11:05:50;;;;;;;17.70;8.85;;;19.80;65.90;;;;;;4894599;29;19923;-83
2021/04/25 11:08:19;;;;;;;14.68;9.05;;;19.80;64.90;;;;;;4908526;29;20104;-85
2021/04/25 11:10:54;;;;;;;17.98;8.40;;;19.90;65.80;;;;;;4889222;29;20063;-83
2021/04/25 11:16:05;;;;;;;12.88;8.40;;;20.10;65.80;;;;;;4893684;29;20603;-82
2021/04/25 11:19:04;;;;;;;12.30;8.43;;;20.20;65.70;;;;;;4904506;29;20067;-84
2021/04/25 11:21:35;;;;;;;13.45;7.97;;;20.30;66.20;;;;;;4904306;29;20488;-83
2021/04/25 11:24:02;;;;;;;17.20;8.70;;;20.40;66.20;;;;;;4893937;29;20101;-82
2021/04/25 11:26:41;;;;;;;15.27;8.43;;;20.50;65.40;;;;;;4906951;29;20072;-83
2021/04/25 11:29:14;;;;;;;12.32;7.78;;;20.50;65.40;;;;;;4893229;29;20053;-82
2021/04/25 11:31:51;;;;;;;13.88;8.20;;;20.50;65.10;;;;;;4906856;29;20101;-83
2021/04/25 11:34:31;;;;;;;14.83;7.03;;;20.60;65.30;;;;;;4889453;29;20508;-81
2021/04/25 11:37:19;;;;;;;11.38;7.22;;;20.60;65.20;;;;;;4888438;29;20364;-82
2021/04/25 11:39:48;;;;;;;12.55;8.35;;;20.60;64.70;;;;;;4906710;29;20060;-82
2021/04/25 11:42:26;;;;;;;11.82;8.45;;;20.40;64.60;;;;;;4893264;29;20049;-84
2021/04/25 11:44:53;;;;;;;13.43;8.77;;;20.20;64.30;;;;;;4890961;29;20049;-82
2021/04/25 11:47:20;;;;;;;12.35;7.78;;;20.10;65.10;;;;;;4891276;29;20060;-81
2021/04/25 11:49:52;;;;;;;13.25;7.78;;;20.10;65.80;;;;;;4891193;29;20079;-83
2021/04/25 11:52:34;;;;;;;11.23;8.05;;;20.20;66.20;;;;;;4891162;29;20168;-81
2021/04/25 11:55:01;;;;;;;10.60;7.78;;;20.10;65.10;;;;;;4888675;29;20072;-83
2021/04/25 11:57:30;;;;;;;9.75;7.65;;;20.00;65.40;;;;;;4890405;29;20052;-83
2021/04/25 12:00:04;;;;;;;12.18;7.65;;;20.10;65.40;;;;;;4891254;29;20056;-83
2021/04/25 12:02:37;;;;;;;14.48;8.35;;;20.10;65.40;;;;;;4907353;29;20518;-82
2021/04/25 12:05:12;;;;;;;12.75;7.68;;;20.00;65.40;;;;;;4892763;29;20058;-82
2021/04/25 12:07:57;;;;;;;15.32;7.63;;;20.00;66.00;;;;;;4905212;29;20052;-83
2021/04/25 12:10:49;;;;;;;14.85;7.80;;;20.00;66.60;;;;;;4893961;29;20583;-82
2021/04/25 12:13:21;;;;;;;15.80;7.40;;;20.10;66.30;;;;;;4891450;29;20048;-84
2021/04/25 12:15:51;;;;;;;12.15;7.15;;;20.20;66.20;;;;;;4892362;29;20147;-82
2021/04/25 12:18:43;;;;;;;11.10;7.85;;;20.30;66.30;;;;;;4892808;29;20072;-83
2021/04/25 12:21:19;;;;;;;12.10;7.80;;;20.50;66.60;;;;;;4908696;29;20060;-84
2021/04/25 12:23:45;;;;;;;13.13;7.90;;;20.70;66.50;;;;;;4887581;29;20179;-83
2021/04/25 12:26:14;;;;;;;14.48;6.97;;;20.90;65.90;;;;;;4890773;29;20124;-84
2021/04/25 12:28:42;;;;;;;;;;;21.00;65.10;;;;;;4909210;29;20044;-84
2021/04/25 12:31:13;;;;;;;14.00;7.60;;;20.90;64.60;;;;;;4904061;29;19924;-83
2021/04/25 12:33:44;;;;;;;16.17;7.35;;;20.90;65.00;;;;;;4908529;29;20579;-82
2021/04/25 12:36:13;;;;;;;10.90;7.00;;;20.80;63.80;;;;;;4893203;29;20456;-84
2021/04/25 12:38:40;;;;;;;;;;;20.70;64.60;;;;;;4894836;29;20048;-83
2021/04/25 12:41:14;;;;;;;14.98;6.78;;;20.70;64.40;;;;;;4892915;29;20395;-84
2021/04/25 12:43:47;;;;;;;14.45;6.93;;;20.80;65.20;;;;;;4908335;29;20437;-82
2021/04/25 12:46:15;;;;;;;12.18;6.88;;;21.00;65.70;;;;;;4907325;29;20551;-84
2021/04/25 12:48:43;;;;;;;10.02;7.38;;;21.30;65.10;;;;;;4908511;29;20528;-83
2021/04/25 12:51:16;;;;;;;13.48;6.82;;;21.30;64.00;;;;;;4892470;29;20053;-85
2021/04/25 12:53:49;;;;;;;13.50;7.72;;;21.20;63.20;;;;;;4908668;29;20041;-83
2021/04/25 12:56:23;;;;;;;10.00;6.07;;;21.00;62.90;;;;;;4907641;29;20112;-82
2021/04/25 12:59:01;;;;;;;10.30;6.85;;;21.00;63.20;;;;;;4907680;29;20052;-83
2021/04/25 13:01:29;;;;;;;;;;;20.90;63.60;;;;;;4900174;29;20052;-82
2021/04/25 13:03:56;;;;;;;9.93;7.05;;;21.00;64.10;;;;;;4902764;29;20030;-83
2021/04/25 13:06:28;;;;;;;11.32;6.25;;;21.10;63.70;;;;;;4888032;29;20529;-83
2021/04/25 13:08:56;;;;;;;10.68;7.13;;;21.10;63.50;;;;;;4892301;29;20057;-85
2021/04/25 13:11:39;;;;;;;10.30;6.40;;;21.10;63.40;;;;;;4891238;29;20084;-84
2021/04/25 13:14:12;;;;;;;11.75;7.00;;;21.20;63.90;;;;;;4900814;29;20053;-84
2021/04/25 13:16:39;;;;;;;9.68;6.68;;;21.20;63.60;;;;;;4890543;29;20618;-83
2021/04/25 13:19:08;;;;;;;11.77;7.10;;;21.10;63.40;;;;;;4891975;29;20052;-84
2021/04/25 13:21:46;;;;;;;10.25;6.07;;;21.00;63.10;;;;;;4907790;29;20112;-83
2021/04/25 13:24:15;;;;;;;12.68;7.68;;;20.90;64.20;;;;;;4893481;29;20054;-85
2021/04/25 13:26:41;;;;;;;;;;;20.90;64.30;;;;;;4907959;29;20599;-83
2021/04/25 13:29:21;;;;;;;12.52;6.75;;;20.80;63.70;;;;;;4893030;29;19923;-83
2021/04/25 13:31:50;;;;;;;9.23;6.45;;;20.90;65.10;;;;;;4906392;29;20048;-83
2021/04/25 13:34:17;;;;;;;8.70;5.82;;;21.00;65.60;;;;;;4905159;29;20056;-83
2021/04/25 13:36:44;;;;;;;11.60;6.68;;;21.10;65.50;;;;;;4890430;29;20056;-84
2021/04/25 13:39:13;;;;;;;8.90;6.18;;;21.30;65.60;;;;;;4892888;29;20472;-84
2021/04/25 13:41:41;;;;;;;;;;;21.50;65.60;;;;;;4892000;29;20727;-84
2021/04/25 13:44:09;;;;;;;16.10;7.05;;;21.50;64.80;;;;;;4906478;29;19978;-83
2021/04/25 13:46:37;;;;;;;13.35;6.45;;;21.40;64.10;;;;;;4891797;29;20112;-84
2021/04/25 13:49:04;;;;;;;12.25;6.93;;;21.10;63.70;;;;;;4906806;29;20512;-85
2021/04/25 13:51:38;;;;;;;10.90;6.55;;;20.90;64.20;;;;;;4891621;29;20052;-85
2021/04/25 13:54:06;;;;;;;11.23;6.78;;;20.80;64.90;;;;;;4906645;29;20131;-85
2021/04/25 13:56:34;;;;;;;13.35;6.80;;;20.70;65.40;;;;;;4892339;29;20048;-83
2021/04/25 13:59:00;;;;;;;15.60;7.20;;;20.60;65.90;;;;;;4911380;29;20128;-82
2021/04/25 14:01:28;;;;;;;11.93;6.60;;;20.50;66.50;;;;;;4895173;29;20079;-84
2021/04/25 14:03:54;;;;;;;13.38;6.70;;;20.40;67.00;;;;;;4911114;29;20507;-84
2021/04/25 14:06:20;;;;;;;11.82;6.43;;;20.30;67.60;;;;;;4907581;29;20096;-83
2021/04/25 14:08:47;;;;;;;11.50;6.47;;;20.30;67.80;;;;;;4893544;29;20045;-83
2021/04/25 14:11:15;;;;;;;12.77;7.35;;;20.30;68.10;;;;;;4910007;29;20530;-84
2021/04/25 14:13:41;;;;;;;10.00;6.25;;;20.30;68.40;;;;;;4911108;29;20048;-83
2021/04/25 14:16:08;;;;;;;13.68;7.28;;;20.20;69.10;;;;;;4895878;29;20072;-83
2021/04/25 14:18:35;;;;;;;12.10;6.57;;;20.20;69.30;;;;;;4896451;29;20048;-82
2021/04/25 14:21:03;;;;;;;10.93;6.43;;;20.20;69.60;;;;;;4896930;29;20076;-83
2021/04/25 14:23:30;;;;;;;11.10;6.13;;;20.40;69.70;;;;;;4896307;29;20420;-83
2021/04/25 14:25:57;;;;;;;15.43;6.85;;;20.50;69.90;;;;;;4896064;29;20068;-83
2021/04/25 14:28:27;;;;;;;16.02;7.25;;;20.60;70.20;;;;;;4895954;29;20116;-83
2021/04/25 14:30:54;;;;;;;16.67;7.43;;;20.70;69.90;;;;;;4912259;29;20064;-83
2021/04/25 14:33:21;;;;;;;9.45;6.53;;;20.60;69.50;;;;;;4916217;29;20095;-84
2021/04/25 14:36:08;;;;;;;14.80;7.07;;;20.50;69.70;;;;;;4914828;29;20384;-82
2021/04/25 14:38:35;;;;;;;15.10;7.53;;;20.60;70.40;;;;;;4915905;29;20499;-82
2021/04/25 14:41:04;;;;;;;11.07;6.85;;;20.60;70.00;;;;;;4915713;29;20060;-83
2021/04/25 14:43:30;;;;;;;13.52;7.03;;;20.60;69.90;;;;;;4916583;29;20504;-83
2021/04/25 14:45:59;;;;;;;13.18;7.32;;;20.50;69.80;;;;;;4897405;29;20423;-83
2021/04/25 14:48:26;;;;;;;;;;;20.40;69.40;;;;;;4916687;29;20056;-85
2021/04/25 14:50:52;;;;;;;14.50;7.03;;;20.20;69.40;;;;;;4900087;29;20021;-85
2021/04/25 14:53:19;;;;;;;12.75;6.18;;;20.10;69.90;;;;;;4900026;29;20052;-83
2021/04/25 14:55:46;;;;;;;14.30;6.90;;;20.10;70.60;;;;;;4911654;29;20056;-84
2021/04/25 14:58:13;;;;;;;13.13;6.97;;;20.10;70.80;;;;;;4894934;29;20526;-84
2021/04/25 15:00:40;;;;;;;11.73;6.40;;;20.00;70.90;;;;;;4912401;29;20052;-83
2021/04/25 15:03:06;;;;;;;10.52;6.30;;;19.80;71.00;;;;;;4915875;29;20095;-82
2021/04/25 15:05:33;;;;;;;11.32;6.30;;;19.70;71.30;;;;;;4912715;29;20115;-83
2021/04/25 15:07:59;;;;;;;14.48;6.50;;;19.70;71.50;;;;;;4912244;29;20040;-82
2021/04/25 15:10:29;;;;;;;13.57;6.50;;;19.70;71.30;;;;;;4914725;29;20443;-83
2021/04/25 15:12:56;;;;;;;15.82;6.22;;;19.60;71.90;;;;;;4912324;29;20216;-82
2021/04/25 15:15:23;;;;;;;16.52;6.30;;;19.60;72.30;;;;;;4908002;29;20500;-84
2021/04/25 15:17:50;;;;;;;13.98;7.15;;;19.70;72.30;;;;;;4906868;29;20060;-83
2021/04/25 15:20:17;;;;;;;9.23;6.00;;;19.80;72.00;;;;;;4906727;29;20418;-83
2021/04/25 15:22:44;;;;;;;13.10;5.80;;;19.90;71.80;;;;;;4906883;29;20280;-83
2021/04/25 15:25:11;;;;;;;13.65;5.95;;;19.80;71.30;;;;;;4909552;29;20048;-83
2021/04/25 15:27:38;;;;;;;14.50;6.82;;;20.00;72.10;;;;;;4908891;29;20099;-84
2021/04/25 15:30:08;;;;;;;13.90;6.23;;;20.00;71.30;;;;;;4900114;29;20526;-87
2021/04/25 15:32:35;;;;;;;13.30;6.43;;;20.00;70.60;;;;;;4914370;29;20052;-84
2021/04/25 15:35:02;;;;;;;13.40;5.97;;;20.00;70.80;;;;;;4914706;29;20075;-83
2021/04/25 15:37:30;;;;;;;12.10;6.45;;;20.00;70.90;;;;;;4914185;29;20056;-84
2021/04/25 15:39:56;;;;;;;18.90;5.93;;;19.90;70.90;;;;;;4901278;29;20052;-84
2021/04/25 15:42:24;;;;;;;13.13;5.55;;;20.00;70.90;;;;;;4901877;29;20053;-83
2021/04/25 15:44:51;;;;;;;12.65;5.97;;;20.00;71.10;;;;;;4915703;29;20052;-82
2021/04/25 15:47:18;;;;;;;16.77;5.93;;;19.80;71.10;;;;;;4897901;29;20733;-83
2021/04/25 15:49:45;;;;;;;22.83;7.18;;;19.70;71.20;;;;;;4898668;29;20091;-83
2021/04/25 15:52:12;;;;;;;18.85;6.07;;;19.60;71.30;;;;;;4896550;29;20052;-83
2021/04/25 15:54:38;;;;;;;12.10;5.60;;;19.50;71.70;;;;;;4914017;29;20071;-85
2021/04/25 15:57:05;;;;;;;17.00;6.53;;;19.40;72.00;;;;;;4897396;29;20555;-85
2021/04/25 15:59:31;;;;;;;12.07;6.03;;;19.40;72.00;;;;;;4912131;29;20048;-84
2021/04/25 16:01:58;;;;;;;12.77;6.53;;;19.30;71.90;;;;;;4894570;29;20108;-84
2021/04/25 16:04:25;;;;;;;17.40;5.72;;;19.10;71.90;;;;;;4911652;29;20059;-84
2021/04/25 16:06:52;;;;;;;17.25;6.00;;;19.10;72.30;;;;;;4912186;29;20086;-83
2021/04/25 16:09:18;;;;;;;12.80;5.95;;;18.90;72.30;;;;;;4896572;29;20048;-84
2021/04/25 16:11:45;;;;;;;14.88;5.82;;;18.90;72.90;;;;;;4913540;29;20752;-84
2021/04/25 16:14:14;;;;;;;16.63;6.25;;;18.80;72.90;;;;;;4910962;29;20048;-84
2021/04/25 16:16:41;;;;;;;;;;;18.80;73.00;;;;;;4913815;29;20059;-84
2021/04/25 16:19:07;;;;;;;11.32;5.20;;;18.70;73.00;;;;;;4912483;29;20397;-84
2021/04/25 16:21:35;;;;;;;15.48;5.72;;;18.60;73.00;;;;;;4912141;29;20541;-83
2021/04/25 16:24:04;;;;;;;12.73;5.47;;;18.50;73.30;;;;;;4895717;29;20134;-83
2021/04/25 16:26:31;;;;;;;17.13;6.38;;;18.50;73.60;;;;;;4893094;29;20043;-83
2021/04/25 16:28:58;;;;;;;15.18;6.25;;;18.40;73.70;;;;;;4912469;29;20138;-84
2021/04/25 16:31:24;;;;;;;13.27;5.88;;;18.20;74.10;;;;;;4913498;29;20456;-83
2021/04/25 16:33:50;;;;;;;16.00;6.28;;;18.20;74.30;;;;;;4895915;29;20052;-83
2021/04/25 16:36:19;;;;;;;11.70;6.13;;;18.10;74.70;;;;;;4912192;29;20534;-84
2021/04/25 16:38:45;;;;;;;17.67;5.93;;;18.10;74.80;;;;;;4911324;29;20060;-82
2021/04/25 16:41:11;;;;;;;13.23;5.25;;;17.90;74.80;;;;;;4911922;29;20059;-84
2021/04/25 16:43:38;;;;;;;13.15;5.15;;;17.90;75.00;;;;;;4912530;29;20096;-85
2021/04/25 16:46:05;;;;;;;15.77;5.05;;;17.80;75.20;;;;;;4911132;29;20575;-83
2021/04/25 16:48:32;;;;;;;14.75;5.47;;;17.80;75.40;;;;;;4909861;29;20052;-84
2021/04/25 16:51:00;;;;;;;11.27;5.30;;;17.70;75.60;;;;;;4895447;29;20052;-83
2021/04/25 16:53:27;;;;;;;13.98;5.60;;;17.60;75.50;;;;;;4910852;29;20511;-83
2021/04/25 16:55:54;;;;;;;13.45;5.68;;;17.60;75.60;;;;;;4897307;29;20055;-82
2021/04/25 16:58:20;;;;;;;11.00;5.05;;;17.50;75.60;;;;;;4894993;29;20048;-84
2021/04/25 17:00:47;;;;;;;9.95;5.72;;;17.40;75.40;;;;;;4895481;29;20040;-83
2021/04/25 17:03:14;;;;;;;12.00;5.50;;;17.40;75.60;;;;;;4895857;29;20127;-83
2021/04/25 17:05:41;;;;;;;15.07;5.07;;;17.30;75.70;;;;;;4908024;29;20503;-83
2021/04/25 17:08:07;;;;;;;14.77;5.43;;;17.20;75.70;;;;;;4906684;29;20127;-83
2021/04/25 17:10:35;;;;;;;14.60;5.70;;;17.20;75.80;;;;;;4909002;29;20459;-83
2021/04/25 17:13:02;;;;;;;14.30;5.63;;;17.20;75.90;;;;;;4894418;29;20055;-83
2021/04/25 17:15:29;;;;;;;11.25;4.85;;;17.10;75.70;;;;;;4908707;29;20518;-83
2021/04/25 17:17:55;;;;;;;14.38;5.25;;;17.00;75.70;;;;;;4910079;29;20060;-84
2021/04/25 17:20:24;;;;;;;13.82;5.20;;;17.00;75.80;;;;;;4889327;29;20087;-85
2021/04/25 17:22:51;;;;;;;;;;;16.90;75.80;;;;;;4908482;29;20518;-84
2021/04/25 17:25:20;;;;;;;15.43;5.85;;;16.80;76.30;;;;;;4907117;29;19931;-84
2021/04/25 17:27:47;;;;;;;18.38;5.10;;;16.60;75.90;;;;;;4894776;29;20166;-83
2021/04/25 17:30:15;;;;;;;10.82;4.63;;;16.60;76.00;;;;;;4905737;29;20440;-84
2021/04/25 17:32:43;;;;;;;9.30;5.07;;;16.60;76.10;;;;;;4890994;29;20111;-84
2021/04/25 17:35:11;;;;;;;11.47;5.10;;;16.50;76.20;;;;;;4907945;29;20048;-84
2021/04/25 17:37:38;;;;;;;14.35;5.28;;;16.40;76.30;;;;;;4909540;29;20059;-84
2021/04/25 17:40:07;;;;;;;13.35;4.47;;;16.30;76.40;;;;;;4896387;29;20056;-84
2021/04/25 17:42:34;;;;;;;;;;;16.30;77.00;;;;;;4894364;29;20052;-83
2021/04/25 17:45:01;;;;;;;12.32;4.90;;;16.20;76.70;;;;;;4911563;29;19927;-83
2021/04/25 17:47:27;;;;;;;12.95;5.68;;;16.10;76.80;;;;;;4895175;29;20079;-83
2021/04/25 17:49:53;;;;;;;13.65;5.38;;;15.90;76.80;;;;;;4911038;29;20060;-82
2021/04/25 17:52:20;;;;;;;10.55;5.07;;;15.80;76.90;;;;;;4894268;29;20060;-83
2021/04/25 17:54:46;;;;;;;10.38;5.03;;;15.80;77.20;;;;;;4910700;29;20587;-83
2021/04/25 17:57:13;;;;;;;17.55;6.00;;;15.70;77.40;;;;;;4912419;29;20114;-82
2021/04/25 17:59:39;;;;;;;14.55;5.50;;;15.70;77.30;;;;;;4910238;29;20419;-82
2021/04/25 18:02:06;;;;;;;16.42;5.38;;;15.60;77.40;;;;;;4910421;29;20048;-82
2021/04/25 18:04:33;;;;;;;15.88;5.75;;;15.60;77.30;;;;;;4894019;29;20132;-83
2021/04/25 18:06:59;;;;;;;16.10;5.43;;;15.50;77.50;;;;;;4895312;29;20041;-83
2021/04/25 18:09:26;;;;;;;14.00;5.45;;;15.40;77.50;;;;;;4893497;29;20447;-82
2021/04/25 18:11:53;;;;;;;16.92;6.00;;;15.40;77.80;;;;;;4910994;29;20040;-83
2021/04/25 18:14:19;;;;;;;12.05;5.45;;;15.20;78.20;;;;;;4908923;29;20052;-81
2021/04/25 18:16:46;;;;;;;19.02;5.18;;;15.10;78.60;;;;;;4910488;29;20795;-82
2021/04/25 18:19:13;;;;;;;12.68;5.05;;;15.00;78.80;;;;;;4910712;29;20052;-82
2021/04/25 18:21:39;;;;;;;18.27;5.80;;;14.90;79.00;;;;;;4911739;29;20401;-84
2021/04/25 18:24:07;;;;;;;14.18;5.18;;;14.80;79.10;;;;;;4910086;29;20052;-83
2021/04/25 18:26:34;;;;;;;11.93;5.25;;;14.70;79.40;;;;;;4894833;29;20048;-83
2021/04/25 18:29:02;;;;;;;14.10;5.97;;;14.60;79.50;;;;;;4908972;29;20084;-82
2021/04/25 18:31:29;;;;;;;17.17;5.75;;;14.60;79.70;;;;;;4894265;29;20044;-83
2021/04/25 18:33:56;;;;;;;15.23;5.65;;;14.50;79.90;;;;;;4894746;29;20048;-82
2021/04/25 18:36:23;;;;;;;17.10;5.90;;;14.40;80.70;;;;;;4911488;29;20060;-83
2021/04/25 18:38:54;;;;;;;13.13;6.20;;;14.30;81.10;;;;;;4910773;29;20052;-82
2021/04/25 18:41:23;;;;;;;16.52;6.13;;;14.20;81.50;;;;;;4892764;29;20060;-82
2021/04/25 18:43:51;;;;;;;15.23;6.30;;;14.00;81.80;;;;;;4911462;29;20416;-82
2021/04/25 18:46:17;;;;;;;16.95;6.93;;;13.90;82.20;;;;;;4895400;29;20052;-84
2021/04/25 18:48:50;;;;;;;17.00;6.53;;;13.80;82.30;;;;;;4913723;29;20119;-83
2021/04/25 18:51:20;;;;;;;17.42;7.05;;;13.80;82.70;;;;;;4913791;29;20056;-82
2021/04/25 18:53:47;;;;;;;17.40;7.00;;;13.70;83.10;;;;;;4913438;29;20060;-82
2021/04/25 18:56:15;;;;;;;22.50;6.75;;;13.60;83.50;;;;;;4897587;29;20063;-83
2021/04/25 18:58:42;;;;;;;20.95;7.57;;;13.50;83.80;;;;;;4914142;29;20044;-83
2021/04/25 19:01:16;;;;;;;15.20;6.93;;;13.40;84.30;;;;;;4912550;29;20471;-83
2021/04/25 19:03:44;;;;;;;16.08;7.47;;;13.30;84.70;;;;;;4913595;29;20503;-83
2021/04/25 19:06:15;;;;;;;14.80;7.18;;;13.30;85.30;;;;;;4913399;29;20099;-82
2021/04/25 19:08:42;;;;;;;16.85;7.20;;;13.20;85.60;;;;;;4913679;29;20052;-84
2021/04/25 19:11:11;;;;;;;21.98;7.72;;;13.00;85.90;;;;;;4895867;29;20108;-84
2021/04/25 19:13:39;;;;;;;16.85;8.10;;;12.90;86.10;;;;;;4912517;29;20052;-84
2021/04/25 19:16:07;;;;;;;18.58;7.68;;;12.90;86.60;;;;;;4902188;29;20507;-85
2021/04/25 19:18:35;;;;;;;19.83;7.10;;;12.80;87.10;;;;;;4912774;29;20096;-84
2021/04/25 19:21:04;;;;;;;24.08;7.28;;;12.70;87.30;;;;;;4897248;29;20048;-85
2021/04/25 19:23:31;;;;;;;17.55;7.05;;;12.60;87.40;;;;;;4911816;29;20048;-85
2021/04/25 19:26:04;;;;;;;20.52;7.35;;;12.50;87.70;;;;;;4896684;29;20075;-84
2021/04/25 19:28:31;;;;;;;18.90;7.38;;;12.50;87.90;;;;;;4912718;29;20046;-85
2021/04/25 19:30:57;;;;;;;20.90;7.25;;;12.40;88.20;;;;;;4897003;29;20483;-85
2021/04/25 19:33:25;;;;;;;14.13;6.95;;;12.40;88.50;;;;;;4897755;29;20064;-84
2021/04/25 19:35:52;;;;;;;20.40;7.95;;;12.30;88.80;;;;;;4896854;29;20095;-84
2021/04/25 19:38:19;;;;;;;17.60;7.00;;;12.20;89.00;;;;;;4913613;29;20095;-84
2021/04/25 19:40:46;;;;;;;19.05;6.30;;;12.20;89.10;;;;;;4912394;29;20124;-84
2021/04/25 19:43:13;;;;;;;16.90;6.40;;;12.20;89.20;;;;;;4913027;29;20515;-85
2021/04/25 19:45:41;;;;;;;12.02;5.95;;;12.10;89.70;;;;;;4896552;29;20096;-85
2021/04/25 19:48:11;;;;;;;15.77;5.80;;;12.00;89.80;;;;;;4899456;29;20563;-84
2021/04/25 19:50:44;;;;;;;19.40;6.75;;;12.00;89.70;;;;;;4912740;29;20047;-84
2021/04/25 19:53:11;;;;;;;16.35;6.32;;;12.00;90.00;;;;;;4911634;29;20059;-85
2021/04/25 19:55:39;;;;;;;15.60;6.63;;;12.00;90.00;;;;;;4912209;29;20044;-85
2021/04/25 19:58:06;;;;;;;15.32;7.00;;;11.90;90.00;;;;;;4896306;29;20052;-85
2021/04/25 20:00:35;;;;;;;18.55;7.97;;;11.90;90.10;;;;;;4913276;29;20059;-83
2021/04/25 20:03:04;;;;;;;17.33;6.30;;;11.90;90.20;;;;;;4911679;29;20056;-84
2021/04/25 20:05:30;;;;;;;16.88;6.90;;;11.90;90.30;;;;;;4896063;29;20059;-84
2021/04/25 20:07:57;;;;;;;24.83;6.53;;;11.80;90.40;;;;;;4912479;29;20583;-83
2021/04/25 20:10:28;;;;;;;29.65;7.93;;;11.80;90.40;;;;;;4910819;29;20404;-84
2021/04/25 20:12:54;;;;;;;14.57;6.38;;;11.70;90.60;;;;;;4894292;29;20095;-84
2021/04/25 20:15:24;;;;;;;15.77;6.75;;;11.70;90.60;;;;;;4908770;29;20064;-85
2021/04/25 20:17:51;;;;;;;15.23;6.95;;;11.70;90.70;;;;;;4910961;29;20048;-85
2021/04/25 20:20:20;;;;;;;22.08;6.90;;;11.70;90.70;;;;;;4909959;29;20048;-83
2021/04/25 20:22:47;;;;;;;18.17;6.60;;;11.60;90.80;;;;;;4912859;29;20056;-84